sensor_id;sensor_type;location;lat;lon;timestamp;temperature;humidity
2873;DHT22;1444;49.166;7.312;2022-08-19T00:00:48;21.70;99.60
2873;DHT22;1444;49.166;7.312;2022-08-19T00:03:15;21.70;99.70
2873;DHT22;1444;49.166;7.312;2022-08-19T00:05:43;21.80;99.50
2873;DHT22;1444;49.166;7.312;2022-08-19T00:08:11;21.80;99.40
2873;DHT22;1444;49.166;7.312;2022-08-19T00:10:37;21.80;99.90
2873;DHT22;1444;49.166;7.312;2022-08-19T00:13:04;21.80;99.70
2873;DHT22;1444;49.166;7.312;2022-08-19T00:15:31;21.80;99.80
2873;DHT22;1444;49.166;7.312;2022-08-19T00:17:58;21.70;99.90
2873;DHT22;1444;49.166;7.312;2022-08-19T00:20:25;21.70;99.40
2873;DHT22;1444;49.166;7.312;2022-08-19T00:22:53;21.70;99.60
2873;DHT22;1444;49.166;7.312;2022-08-19T00:25:20;21.70;99.20
2873;DHT22;1444;49.166;7.312;2022-08-19T00:27:47;21.70;99.50
2873;DHT22;1444;49.166;7.312;2022-08-19T00:30:14;21.70;99.70
2873;DHT22;1444;49.166;7.312;2022-08-19T00:32:41;21.60;99.80
2873;DHT22;1444;49.166;7.312;2022-08-19T00:35:08;21.60;99.80
2873;DHT22;1444;49.166;7.312;2022-08-19T00:37:36;21.60;99.40
2873;DHT22;1444;49.166;7.312;2022-08-19T00:40:06;21.60;99.40
2873;DHT22;1444;49.166;7.312;2022-08-19T00:42:32;21.60;99.50
2873;DHT22;1444;49.166;7.312;2022-08-19T00:44:59;21.60;99.70
2873;DHT22;1444;49.166;7.312;2022-08-19T00:47:26;21.60;99.90
2873;DHT22;1444;49.166;7.312;2022-08-19T00:49:56;21.60;99.10
2873;DHT22;1444;49.166;7.312;2022-08-19T00:52:26;21.60;99.50
2873;DHT22;1444;49.166;7.312;2022-08-19T00:54:55;21.60;99.50
2873;DHT22;1444;49.166;7.312;2022-08-19T00:57:27;21.60;99.50
2873;DHT22;1444;49.166;7.312;2022-08-19T00:59:56;21.60;99.70
2873;DHT22;1444;49.166;7.312;2022-08-19T01:02:24;21.60;99.70
2873;DHT22;1444;49.166;7.312;2022-08-19T01:04:51;21.60;99.80
2873;DHT22;1444;49.166;7.312;2022-08-19T01:07:18;21.50;99.90
2873;DHT22;1444;49.166;7.312;2022-08-19T01:09:44;21.50;99.80
2873;DHT22;1444;49.166;7.312;2022-08-19T01:12:11;21.50;99.70
2873;DHT22;1444;49.166;7.312;2022-08-19T01:14:40;21.50;99.80
2873;DHT22;1444;49.166;7.312;2022-08-19T01:17:08;21.40;99.90
2873;DHT22;1444;49.166;7.312;2022-08-19T01:19:38;21.40;99.90
2873;DHT22;1444;49.166;7.312;2022-08-19T01:22:10;21.30;99.90
2873;DHT22;1444;49.166;7.312;2022-08-19T01:24:39;21.20;99.90
2873;DHT22;1444;49.166;7.312;2022-08-19T01:27:07;20.90;99.90
2873;DHT22;1444;49.166;7.312;2022-08-19T01:29:37;20.80;99.90
2873;DHT22;1444;49.166;7.312;2022-08-19T01:32:07;20.80;99.90
2873;DHT22;1444;49.166;7.312;2022-08-19T01:34:34;20.90;99.90
2873;DHT22;1444;49.166;7.312;2022-08-19T01:37:06;21.00;99.90
2873;DHT22;1444;49.166;7.312;2022-08-19T01:39:34;21.00;99.90
2873;DHT22;1444;49.166;7.312;2022-08-19T01:42:02;21.00;99.90
2873;DHT22;1444;49.166;7.312;2022-08-19T01:44:30;21.10;99.90
2873;DHT22;1444;49.166;7.312;2022-08-19T01:46:57;21.10;99.90
2873;DHT22;1444;49.166;7.312;2022-08-19T01:49:24;21.10;99.90
2873;DHT22;1444;49.166;7.312;2022-08-19T01:51:52;21.10;99.90
2873;DHT22;1444;49.166;7.312;2022-08-19T01:54:21;21.00;99.90
2873;DHT22;1444;49.166;7.312;2022-08-19T01:56:49;20.90;99.90
2873;DHT22;1444;49.166;7.312;2022-08-19T01:59:19;20.90;99.90
2873;DHT22;1444;49.166;7.312;2022-08-19T02:01:47;20.90;99.90
2873;DHT22;1444;49.166;7.312;2022-08-19T02:04:14;21.00;99.90
2873;DHT22;1444;49.166;7.312;2022-08-19T02:06:41;21.00;99.90
2873;DHT22;1444;49.166;7.312;2022-08-19T02:09:08;21.00;99.90
2873;DHT22;1444;49.166;7.312;2022-08-19T02:11:36;21.10;99.90
2873;DHT22;1444;49.166;7.312;2022-08-19T02:14:05;21.10;99.90
2873;DHT22;1444;49.166;7.312;2022-08-19T02:16:34;21.20;99.90
2873;DHT22;1444;49.166;7.312;2022-08-19T02:19:01;21.20;99.90
2873;DHT22;1444;49.166;7.312;2022-08-19T02:21:29;21.20;99.90
2873;DHT22;1444;49.166;7.312;2022-08-19T02:23:56;21.10;99.90
2873;DHT22;1444;49.166;7.312;2022-08-19T02:26:24;21.20;99.90
2873;DHT22;1444;49.166;7.312;2022-08-19T02:28:52;21.20;99.90
2873;DHT22;1444;49.166;7.312;2022-08-19T02:31:21;21.10;99.90
2873;DHT22;1444;49.166;7.312;2022-08-19T02:33:49;21.20;99.90
2873;DHT22;1444;49.166;7.312;2022-08-19T02:36:18;21.10;99.90
2873;DHT22;1444;49.166;7.312;2022-08-19T02:38:44;21.10;99.90
2873;DHT22;1444;49.166;7.312;2022-08-19T02:41:13;21.10;99.90
2873;DHT22;1444;49.166;7.312;2022-08-19T02:43:40;21.00;99.90
2873;DHT22;1444;49.166;7.312;2022-08-19T02:46:15;20.90;99.90
2873;DHT22;1444;49.166;7.312;2022-08-19T02:48:46;20.90;99.90
2873;DHT22;1444;49.166;7.312;2022-08-19T02:51:18;20.90;99.90
2873;DHT22;1444;49.166;7.312;2022-08-19T02:53:45;21.00;99.90
2873;DHT22;1444;49.166;7.312;2022-08-19T02:56:12;21.00;99.90
2873;DHT22;1444;49.166;7.312;2022-08-19T02:58:40;20.90;99.90
2873;DHT22;1444;49.166;7.312;2022-08-19T03:01:07;20.90;99.90
2873;DHT22;1444;49.166;7.312;2022-08-19T03:03:33;20.80;99.90
2873;DHT22;1444;49.166;7.312;2022-08-19T03:06:08;20.80;99.90
2873;DHT22;1444;49.166;7.312;2022-08-19T03:08:38;20.80;99.90
2873;DHT22;1444;49.166;7.312;2022-08-19T03:11:05;20.80;99.90
2873;DHT22;1444;49.166;7.312;2022-08-19T03:13:32;20.80;99.90
2873;DHT22;1444;49.166;7.312;2022-08-19T03:15:58;20.70;99.90
2873;DHT22;1444;49.166;7.312;2022-08-19T03:18:25;20.70;99.90
2873;DHT22;1444;49.166;7.312;2022-08-19T03:20:52;20.80;99.90
2873;DHT22;1444;49.166;7.312;2022-08-19T03:23:20;20.70;99.90
2873;DHT22;1444;49.166;7.312;2022-08-19T03:25:50;20.70;99.90
2873;DHT22;1444;49.166;7.312;2022-08-19T03:28:18;20.80;99.90
2873;DHT22;1444;49.166;7.312;2022-08-19T03:30:55;20.70;99.90
2873;DHT22;1444;49.166;7.312;2022-08-19T03:33:23;20.70;99.90
2873;DHT22;1444;49.166;7.312;2022-08-19T03:36:04;20.60;99.90
2873;DHT22;1444;49.166;7.312;2022-08-19T03:38:32;20.50;99.90
2873;DHT22;1444;49.166;7.312;2022-08-19T03:41:04;20.50;99.90
2873;DHT22;1444;49.166;7.312;2022-08-19T03:43:32;20.50;99.90
2873;DHT22;1444;49.166;7.312;2022-08-19T03:46:01;20.50;99.90
2873;DHT22;1444;49.166;7.312;2022-08-19T03:48:28;20.40;99.90
2873;DHT22;1444;49.166;7.312;2022-08-19T03:50:56;20.20;99.90
2873;DHT22;1444;49.166;7.312;2022-08-19T03:53:24;20.10;99.90
2873;DHT22;1444;49.166;7.312;2022-08-19T03:55:51;20.00;99.90
2873;DHT22;1444;49.166;7.312;2022-08-19T03:58:19;20.10;99.90
2873;DHT22;1444;49.166;7.312;2022-08-19T04:00:46;20.10;99.90
2873;DHT22;1444;49.166;7.312;2022-08-19T04:03:13;20.10;99.90
2873;DHT22;1444;49.166;7.312;2022-08-19T04:05:39;20.10;99.90
2873;DHT22;1444;49.166;7.312;2022-08-19T04:08:06;20.00;99.90
2873;DHT22;1444;49.166;7.312;2022-08-19T04:10:36;20.00;99.90
2873;DHT22;1444;49.166;7.312;2022-08-19T04:13:02;19.90;99.90
2873;DHT22;1444;49.166;7.312;2022-08-19T04:15:32;19.90;99.90
2873;DHT22;1444;49.166;7.312;2022-08-19T04:18:04;19.90;99.90
2873;DHT22;1444;49.166;7.312;2022-08-19T04:20:33;19.90;99.90
2873;DHT22;1444;49.166;7.312;2022-08-19T04:22:59;19.90;99.90
2873;DHT22;1444;49.166;7.312;2022-08-19T04:25:26;19.90;99.90
2873;DHT22;1444;49.166;7.312;2022-08-19T04:27:53;19.80;99.90
2873;DHT22;1444;49.166;7.312;2022-08-19T04:30:19;19.80;99.90
2873;DHT22;1444;49.166;7.312;2022-08-19T04:32:49;19.80;99.90
2873;DHT22;1444;49.166;7.312;2022-08-19T04:35:16;19.80;99.90
2873;DHT22;1444;49.166;7.312;2022-08-19T04:37:42;19.90;99.90
2873;DHT22;1444;49.166;7.312;2022-08-19T04:40:10;19.80;99.90
2873;DHT22;1444;49.166;7.312;2022-08-19T04:42:54;19.80;99.90
2873;DHT22;1444;49.166;7.312;2022-08-19T04:45:21;19.70;99.90
2873;DHT22;1444;49.166;7.312;2022-08-19T04:47:54;19.70;99.90
2873;DHT22;1444;49.166;7.312;2022-08-19T04:50:22;19.70;99.90
2873;DHT22;1444;49.166;7.312;2022-08-19T04:52:50;19.60;99.90
2873;DHT22;1444;49.166;7.312;2022-08-19T04:55:18;19.60;99.90
2873;DHT22;1444;49.166;7.312;2022-08-19T04:57:45;19.60;99.90
2873;DHT22;1444;49.166;7.312;2022-08-19T05:00:12;19.60;99.90
2873;DHT22;1444;49.166;7.312;2022-08-19T05:02:39;19.60;99.90
2873;DHT22;1444;49.166;7.312;2022-08-19T05:05:08;19.50;99.90
2873;DHT22;1444;49.166;7.312;2022-08-19T05:07:35;19.60;99.90
2873;DHT22;1444;49.166;7.312;2022-08-19T05:10:03;19.50;99.90
2873;DHT22;1444;49.166;7.312;2022-08-19T05:12:30;19.50;99.90
2873;DHT22;1444;49.166;7.312;2022-08-19T05:14:58;19.40;99.90
2873;DHT22;1444;49.166;7.312;2022-08-19T05:17:26;19.40;99.90
2873;DHT22;1444;49.166;7.312;2022-08-19T05:19:53;19.40;99.90
2873;DHT22;1444;49.166;7.312;2022-08-19T05:22:39;19.40;99.90
2873;DHT22;1444;49.166;7.312;2022-08-19T05:25:09;19.30;99.90
2873;DHT22;1444;49.166;7.312;2022-08-19T05:27:37;19.30;99.90
2873;DHT22;1444;49.166;7.312;2022-08-19T05:30:05;19.40;99.90
2873;DHT22;1444;49.166;7.312;2022-08-19T05:32:32;19.50;99.90
2873;DHT22;1444;49.166;7.312;2022-08-19T05:34:59;19.50;99.90
2873;DHT22;1444;49.166;7.312;2022-08-19T05:37:25;19.40;99.90
2873;DHT22;1444;49.166;7.312;2022-08-19T05:39:54;19.40;99.90
2873;DHT22;1444;49.166;7.312;2022-08-19T05:42:22;19.40;99.90
2873;DHT22;1444;49.166;7.312;2022-08-19T05:44:50;19.40;99.90
2873;DHT22;1444;49.166;7.312;2022-08-19T05:47:17;19.50;99.90
2873;DHT22;1444;49.166;7.312;2022-08-19T05:49:45;19.50;99.90
2873;DHT22;1444;49.166;7.312;2022-08-19T05:52:13;19.50;99.90
2873;DHT22;1444;49.166;7.312;2022-08-19T05:54:41;19.50;99.90
2873;DHT22;1444;49.166;7.312;2022-08-19T05:57:10;19.50;99.90
2873;DHT22;1444;49.166;7.312;2022-08-19T05:59:36;19.80;99.90
2873;DHT22;1444;49.166;7.312;2022-08-19T06:02:04;19.90;99.90
2873;DHT22;1444;49.166;7.312;2022-08-19T06:04:33;20.00;99.90
2873;DHT22;1444;49.166;7.312;2022-08-19T06:06:59;20.00;99.90
2873;DHT22;1444;49.166;7.312;2022-08-19T06:09:27;20.20;99.90
2873;DHT22;1444;49.166;7.312;2022-08-19T06:11:55;20.30;99.90
2873;DHT22;1444;49.166;7.312;2022-08-19T06:14:28;20.40;99.90
2873;DHT22;1444;49.166;7.312;2022-08-19T06:16:56;20.40;99.90
2873;DHT22;1444;49.166;7.312;2022-08-19T06:19:25;20.70;99.90
2873;DHT22;1444;49.166;7.312;2022-08-19T06:21:52;20.90;99.90
2873;DHT22;1444;49.166;7.312;2022-08-19T06:24:22;21.10;99.90
2873;DHT22;1444;49.166;7.312;2022-08-19T06:26:50;21.20;99.90
2873;DHT22;1444;49.166;7.312;2022-08-19T06:29:19;21.30;99.90
2873;DHT22;1444;49.166;7.312;2022-08-19T06:31:50;21.50;99.90
2873;DHT22;1444;49.166;7.312;2022-08-19T06:34:18;21.50;99.90
2873;DHT22;1444;49.166;7.312;2022-08-19T06:36:47;21.60;99.90
2873;DHT22;1444;49.166;7.312;2022-08-19T06:39:18;21.70;99.90
2873;DHT22;1444;49.166;7.312;2022-08-19T06:41:47;21.80;99.90
2873;DHT22;1444;49.166;7.312;2022-08-19T06:44:15;22.10;99.80
2873;DHT22;1444;49.166;7.312;2022-08-19T06:46:42;22.10;99.80
2873;DHT22;1444;49.166;7.312;2022-08-19T06:49:11;22.40;99.70
2873;DHT22;1444;49.166;7.312;2022-08-19T06:51:40;22.70;99.40
2873;DHT22;1444;49.166;7.312;2022-08-19T06:54:09;22.80;98.90
2873;DHT22;1444;49.166;7.312;2022-08-19T06:56:36;23.00;98.80
2873;DHT22;1444;49.166;7.312;2022-08-19T06:59:05;23.40;98.30
2873;DHT22;1444;49.166;7.312;2022-08-19T07:01:35;23.80;97.70
2873;DHT22;1444;49.166;7.312;2022-08-19T07:04:03;24.20;96.90
2873;DHT22;1444;49.166;7.312;2022-08-19T07:06:31;24.40;97.00
2873;DHT22;1444;49.166;7.312;2022-08-19T07:08:58;24.60;96.70
2873;DHT22;1444;49.166;7.312;2022-08-19T07:11:25;24.90;95.60
2873;DHT22;1444;49.166;7.312;2022-08-19T07:13:51;25.30;93.80
2873;DHT22;1444;49.166;7.312;2022-08-19T07:16:19;25.40;93.20
2873;DHT22;1444;49.166;7.312;2022-08-19T07:18:46;25.60;93.00
2873;DHT22;1444;49.166;7.312;2022-08-19T07:21:17;25.80;93.20
2873;DHT22;1444;49.166;7.312;2022-08-19T07:23:46;26.00;91.40
2873;DHT22;1444;49.166;7.312;2022-08-19T07:26:16;26.20;91.00
2873;DHT22;1444;49.166;7.312;2022-08-19T07:28:45;26.40;90.80
2873;DHT22;1444;49.166;7.312;2022-08-19T07:31:14;26.40;91.20
2873;DHT22;1444;49.166;7.312;2022-08-19T07:33:41;26.60;90.50
2873;DHT22;1444;49.166;7.312;2022-08-19T07:36:11;26.60;90.20
2873;DHT22;1444;49.166;7.312;2022-08-19T07:38:39;26.70;89.80
2873;DHT22;1444;49.166;7.312;2022-08-19T07:41:10;26.70;90.00
2873;DHT22;1444;49.166;7.312;2022-08-19T07:43:37;26.70;89.00
2873;DHT22;1444;49.166;7.312;2022-08-19T07:46:05;26.90;89.30
2873;DHT22;1444;49.166;7.312;2022-08-19T07:48:32;26.90;89.60
2873;DHT22;1444;49.166;7.312;2022-08-19T07:51:00;26.80;87.00
2873;DHT22;1444;49.166;7.312;2022-08-19T07:53:28;26.80;88.30
2873;DHT22;1444;49.166;7.312;2022-08-19T07:55:55;26.90;88.40
2873;DHT22;1444;49.166;7.312;2022-08-19T07:58:25;26.80;87.60
2873;DHT22;1444;49.166;7.312;2022-08-19T08:00:53;26.70;87.20
2873;DHT22;1444;49.166;7.312;2022-08-19T08:03:21;26.60;88.40
2873;DHT22;1444;49.166;7.312;2022-08-19T08:06:09;26.60;87.50
2873;DHT22;1444;49.166;7.312;2022-08-19T08:09:08;26.60;88.80
2873;DHT22;1444;49.166;7.312;2022-08-19T08:11:43;26.50;88.00
2873;DHT22;1444;49.166;7.312;2022-08-19T08:14:17;26.40;89.00
2873;DHT22;1444;49.166;7.312;2022-08-19T08:16:45;26.60;89.10
2873;DHT22;1444;49.166;7.312;2022-08-19T08:19:13;26.70;88.90
2873;DHT22;1444;49.166;7.312;2022-08-19T08:21:41;26.80;87.70
2873;DHT22;1444;49.166;7.312;2022-08-19T08:24:08;27.00;88.60
2873;DHT22;1444;49.166;7.312;2022-08-19T08:26:35;27.40;87.00
2873;DHT22;1444;49.166;7.312;2022-08-19T08:29:02;27.70;86.20
2873;DHT22;1444;49.166;7.312;2022-08-19T08:31:30;27.80;86.50
2873;DHT22;1444;49.166;7.312;2022-08-19T08:33:58;28.10;85.00
2873;DHT22;1444;49.166;7.312;2022-08-19T08:36:25;28.40;83.70
2873;DHT22;1444;49.166;7.312;2022-08-19T08:38:53;28.60;81.80
2873;DHT22;1444;49.166;7.312;2022-08-19T08:41:27;28.70;82.20
2873;DHT22;1444;49.166;7.312;2022-08-19T08:43:56;28.80;82.60
2873;DHT22;1444;49.166;7.312;2022-08-19T08:46:26;28.70;81.60
2873;DHT22;1444;49.166;7.312;2022-08-19T08:49:03;28.70;80.80
2873;DHT22;1444;49.166;7.312;2022-08-19T08:51:35;28.80;79.30
2873;DHT22;1444;49.166;7.312;2022-08-19T08:54:06;28.90;79.10
2873;DHT22;1444;49.166;7.312;2022-08-19T08:56:33;29.10;78.60
2873;DHT22;1444;49.166;7.312;2022-08-19T08:59:03;29.10;78.40
2873;DHT22;1444;49.166;7.312;2022-08-19T09:01:33;29.20;75.70
2873;DHT22;1444;49.166;7.312;2022-08-19T09:04:02;29.20;76.40
2873;DHT22;1444;49.166;7.312;2022-08-19T09:06:36;29.30;76.80
2873;DHT22;1444;49.166;7.312;2022-08-19T09:09:09;29.30;76.70
2873;DHT22;1444;49.166;7.312;2022-08-19T09:11:50;29.20;76.20
2873;DHT22;1444;49.166;7.312;2022-08-19T09:14:32;29.00;75.80
2873;DHT22;1444;49.166;7.312;2022-08-19T09:16:59;28.90;74.60
2873;DHT22;1444;49.166;7.312;2022-08-19T09:19:30;29.00;75.30
2873;DHT22;1444;49.166;7.312;2022-08-19T09:21:57;28.90;73.70
2873;DHT22;1444;49.166;7.312;2022-08-19T09:24:26;28.90;74.70
2873;DHT22;1444;49.166;7.312;2022-08-19T09:26:52;29.00;74.80
2873;DHT22;1444;49.166;7.312;2022-08-19T09:29:19;29.20;75.40
2873;DHT22;1444;49.166;7.312;2022-08-19T09:31:46;29.40;73.50
2873;DHT22;1444;49.166;7.312;2022-08-19T09:34:13;29.50;72.80
2873;DHT22;1444;49.166;7.312;2022-08-19T09:36:41;29.80;72.20
2873;DHT22;1444;49.166;7.312;2022-08-19T09:39:08;29.90;71.60
2873;DHT22;1444;49.166;7.312;2022-08-19T09:41:35;30.20;71.30
2873;DHT22;1444;49.166;7.312;2022-08-19T09:44:02;30.40;71.30
2873;DHT22;1444;49.166;7.312;2022-08-19T09:46:29;30.50;71.60
2873;DHT22;1444;49.166;7.312;2022-08-19T09:48:58;30.40;71.20
2873;DHT22;1444;49.166;7.312;2022-08-19T09:51:27;30.40;70.10
2873;DHT22;1444;49.166;7.312;2022-08-19T09:54:00;30.40;71.10
2873;DHT22;1444;49.166;7.312;2022-08-19T09:56:28;30.60;71.10
2873;DHT22;1444;49.166;7.312;2022-08-19T09:58:57;30.60;69.60
2873;DHT22;1444;49.166;7.312;2022-08-19T10:01:26;30.60;68.60
2873;DHT22;1444;49.166;7.312;2022-08-19T10:03:55;30.70;68.90
2873;DHT22;1444;49.166;7.312;2022-08-19T10:06:23;30.70;68.50
2873;DHT22;1444;49.166;7.312;2022-08-19T10:08:51;31.00;69.60
2873;DHT22;1444;49.166;7.312;2022-08-19T10:11:20;31.20;68.50
2873;DHT22;1444;49.166;7.312;2022-08-19T10:13:47;31.20;69.00
2873;DHT22;1444;49.166;7.312;2022-08-19T10:16:16;31.60;68.90
2873;DHT22;1444;49.166;7.312;2022-08-19T10:18:44;31.50;66.00
2873;DHT22;1444;49.166;7.312;2022-08-19T10:21:13;31.50;67.60
2873;DHT22;1444;49.166;7.312;2022-08-19T10:23:42;31.40;65.50
2873;DHT22;1444;49.166;7.312;2022-08-19T10:26:10;31.50;68.40
2873;DHT22;1444;49.166;7.312;2022-08-19T10:28:39;31.40;65.60
2873;DHT22;1444;49.166;7.312;2022-08-19T10:31:06;31.10;64.20
2873;DHT22;1444;49.166;7.312;2022-08-19T10:33:35;31.00;64.20
2873;DHT22;1444;49.166;7.312;2022-08-19T10:36:04;30.60;66.20
2873;DHT22;1444;49.166;7.312;2022-08-19T10:38:31;30.40;67.00
2873;DHT22;1444;49.166;7.312;2022-08-19T10:41:06;30.10;67.30
2873;DHT22;1444;49.166;7.312;2022-08-19T10:43:33;29.90;68.20
2873;DHT22;1444;49.166;7.312;2022-08-19T10:46:04;29.90;68.30
2873;DHT22;1444;49.166;7.312;2022-08-19T10:48:32;30.00;67.20
2873;DHT22;1444;49.166;7.312;2022-08-19T10:50:59;30.00;68.60
2873;DHT22;1444;49.166;7.312;2022-08-19T10:53:43;30.30;67.60
2873;DHT22;1444;49.166;7.312;2022-08-19T10:56:10;30.40;68.20
2873;DHT22;1444;49.166;7.312;2022-08-19T10:58:54;30.90;65.80
2873;DHT22;1444;49.166;7.312;2022-08-19T11:01:23;31.30;66.50
2873;DHT22;1444;49.166;7.312;2022-08-19T11:03:50;31.40;64.30
2873;DHT22;1444;49.166;7.312;2022-08-19T11:06:18;31.40;64.60
2873;DHT22;1444;49.166;7.312;2022-08-19T11:08:45;31.20;62.50
2873;DHT22;1444;49.166;7.312;2022-08-19T11:11:12;31.10;63.50
2873;DHT22;1444;49.166;7.312;2022-08-19T11:13:42;31.10;63.10
2873;DHT22;1444;49.166;7.312;2022-08-19T11:16:15;31.00;63.40
2873;DHT22;1444;49.166;7.312;2022-08-19T11:18:46;31.00;64.10
2873;DHT22;1444;49.166;7.312;2022-08-19T11:21:17;31.00;63.00
2873;DHT22;1444;49.166;7.312;2022-08-19T11:23:45;30.90;63.50
2873;DHT22;1444;49.166;7.312;2022-08-19T11:28:39;31.00;63.40
2873;DHT22;1444;49.166;7.312;2022-08-19T11:31:10;31.20;63.30
2873;DHT22;1444;49.166;7.312;2022-08-19T11:33:37;31.30;63.10
2873;DHT22;1444;49.166;7.312;2022-08-19T11:36:05;31.00;60.90
2873;DHT22;1444;49.166;7.312;2022-08-19T11:38:32;31.00;61.80
2873;DHT22;1444;49.166;7.312;2022-08-19T11:41:01;31.00;61.80
2873;DHT22;1444;49.166;7.312;2022-08-19T11:43:28;31.20;62.10
2873;DHT22;1444;49.166;7.312;2022-08-19T11:45:57;31.30;60.90
2873;DHT22;1444;49.166;7.312;2022-08-19T11:48:24;31.50;62.40
2873;DHT22;1444;49.166;7.312;2022-08-19T11:50:53;31.70;61.10
2873;DHT22;1444;49.166;7.312;2022-08-19T11:53:22;31.80;61.30
2873;DHT22;1444;49.166;7.312;2022-08-19T11:55:50;32.00;61.50
2873;DHT22;1444;49.166;7.312;2022-08-19T11:58:22;32.10;59.10
2873;DHT22;1444;49.166;7.312;2022-08-19T12:00:50;32.40;61.00
2873;DHT22;1444;49.166;7.312;2022-08-19T12:05:45;32.00;57.80
2873;DHT22;1444;49.166;7.312;2022-08-19T12:08:12;31.60;57.90
2873;DHT22;1444;49.166;7.312;2022-08-19T12:10:42;31.30;59.00
2873;DHT22;1444;49.166;7.312;2022-08-19T12:13:10;31.30;59.40
2873;DHT22;1444;49.166;7.312;2022-08-19T12:15:39;31.30;58.30
2873;DHT22;1444;49.166;7.312;2022-08-19T12:18:07;31.20;58.40
2873;DHT22;1444;49.166;7.312;2022-08-19T12:20:35;30.90;57.00
2873;DHT22;1444;49.166;7.312;2022-08-19T12:23:02;31.00;57.80
2873;DHT22;1444;49.166;7.312;2022-08-19T12:25:29;30.80;57.70
2873;DHT22;1444;49.166;7.312;2022-08-19T12:27:58;31.10;58.90
2873;DHT22;1444;49.166;7.312;2022-08-19T12:30:25;31.50;58.20
2873;DHT22;1444;49.166;7.312;2022-08-19T12:32:52;32.00;57.00
2873;DHT22;1444;49.166;7.312;2022-08-19T12:35:19;32.30;54.70
2873;DHT22;1444;49.166;7.312;2022-08-19T12:37:47;32.50;54.70
2873;DHT22;1444;49.166;7.312;2022-08-19T12:40:15;32.50;54.90
2873;DHT22;1444;49.166;7.312;2022-08-19T12:42:43;32.70;53.00
2873;DHT22;1444;49.166;7.312;2022-08-19T12:45:12;32.60;53.80
2873;DHT22;1444;49.166;7.312;2022-08-19T12:47:40;32.70;53.70
2873;DHT22;1444;49.166;7.312;2022-08-19T12:50:07;32.60;53.80
2873;DHT22;1444;49.166;7.312;2022-08-19T12:52:35;32.70;53.90
2873;DHT22;1444;49.166;7.312;2022-08-19T12:55:04;32.60;53.40
2873;DHT22;1444;49.166;7.312;2022-08-19T12:57:32;32.60;53.30
2873;DHT22;1444;49.166;7.312;2022-08-19T13:00:06;32.60;52.70
2873;DHT22;1444;49.166;7.312;2022-08-19T13:02:38;32.70;53.40
2873;DHT22;1444;49.166;7.312;2022-08-19T13:05:08;32.70;54.50
2873;DHT22;1444;49.166;7.312;2022-08-19T13:07:36;33.00;57.60
2873;DHT22;1444;49.166;7.312;2022-08-19T13:10:05;32.90;57.90
2873;DHT22;1444;49.166;7.312;2022-08-19T13:12:32;32.80;57.70
2873;DHT22;1444;49.166;7.312;2022-08-19T13:14:58;32.60;57.50
2873;DHT22;1444;49.166;7.312;2022-08-19T13:17:25;32.20;58.00
2873;DHT22;1444;49.166;7.312;2022-08-19T13:19:53;31.90;59.10
2873;DHT22;1444;49.166;7.312;2022-08-19T13:22:20;31.90;60.00
2873;DHT22;1444;49.166;7.312;2022-08-19T13:24:47;31.80;59.20
2873;DHT22;1444;49.166;7.312;2022-08-19T13:27:15;31.90;60.90
2873;DHT22;1444;49.166;7.312;2022-08-19T13:29:42;31.90;60.00
2873;DHT22;1444;49.166;7.312;2022-08-19T13:32:26;32.00;61.00
2873;DHT22;1444;49.166;7.312;2022-08-19T13:35:12;31.80;60.50
2873;DHT22;1444;49.166;7.312;2022-08-19T13:37:38;31.70;61.20
2873;DHT22;1444;49.166;7.312;2022-08-19T13:40:11;31.60;61.20
2873;DHT22;1444;49.166;7.312;2022-08-19T13:42:41;31.50;61.70
2873;DHT22;1444;49.166;7.312;2022-08-19T13:45:09;31.10;61.90
2873;DHT22;1444;49.166;7.312;2022-08-19T13:47:36;31.00;63.10
2873;DHT22;1444;49.166;7.312;2022-08-19T13:50:05;30.80;62.30
2873;DHT22;1444;49.166;7.312;2022-08-19T13:52:33;30.50;62.50
2873;DHT22;1444;49.166;7.312;2022-08-19T13:54:59;30.50;63.30
2873;DHT22;1444;49.166;7.312;2022-08-19T13:57:26;30.40;62.70
2873;DHT22;1444;49.166;7.312;2022-08-19T13:59:53;30.40;64.30
2873;DHT22;1444;49.166;7.312;2022-08-19T14:02:19;30.40;65.00
2873;DHT22;1444;49.166;7.312;2022-08-19T14:04:46;30.40;63.30
2873;DHT22;1444;49.166;7.312;2022-08-19T14:07:13;30.60;64.80
2873;DHT22;1444;49.166;7.312;2022-08-19T14:09:41;30.50;63.90
2873;DHT22;1444;49.166;7.312;2022-08-19T14:12:08;30.50;63.40
2873;DHT22;1444;49.166;7.312;2022-08-19T14:14:36;30.70;63.30
2873;DHT22;1444;49.166;7.312;2022-08-19T14:17:05;30.70;62.20
2873;DHT22;1444;49.166;7.312;2022-08-19T14:19:32;30.60;62.40
2873;DHT22;1444;49.166;7.312;2022-08-19T14:21:59;30.80;62.50
2873;DHT22;1444;49.166;7.312;2022-08-19T14:24:26;30.70;61.50
2873;DHT22;1444;49.166;7.312;2022-08-19T14:26:54;30.60;61.00
2873;DHT22;1444;49.166;7.312;2022-08-19T14:29:21;30.60;61.30
2873;DHT22;1444;49.166;7.312;2022-08-19T14:31:47;30.70;62.00
2873;DHT22;1444;49.166;7.312;2022-08-19T14:34:14;30.70;61.70
2873;DHT22;1444;49.166;7.312;2022-08-19T14:36:41;30.80;61.30
2873;DHT22;1444;49.166;7.312;2022-08-19T14:39:08;30.80;60.20
2873;DHT22;1444;49.166;7.312;2022-08-19T14:41:35;30.80;60.50
2873;DHT22;1444;49.166;7.312;2022-08-19T14:44:04;30.80;60.70
2873;DHT22;1444;49.166;7.312;2022-08-19T14:46:31;31.10;60.60
2873;DHT22;1444;49.166;7.312;2022-08-19T14:48:57;31.20;59.90
2873;DHT22;1444;49.166;7.312;2022-08-19T14:51:25;31.20;59.30
2873;DHT22;1444;49.166;7.312;2022-08-19T14:53:52;31.20;59.10
2873;DHT22;1444;49.166;7.312;2022-08-19T14:56:21;31.40;58.40
2873;DHT22;1444;49.166;7.312;2022-08-19T14:58:48;31.50;58.30
2873;DHT22;1444;49.166;7.312;2022-08-19T15:01:19;31.50;57.70
2873;DHT22;1444;49.166;7.312;2022-08-19T15:03:47;31.50;57.90
2873;DHT22;1444;49.166;7.312;2022-08-19T15:06:14;31.50;57.10
2873;DHT22;1444;49.166;7.312;2022-08-19T15:08:42;31.20;57.00
2873;DHT22;1444;49.166;7.312;2022-08-19T15:11:12;31.10;56.80
2873;DHT22;1444;49.166;7.312;2022-08-19T15:13:39;31.20;57.50
2873;DHT22;1444;49.166;7.312;2022-08-19T15:16:06;31.30;56.80
2873;DHT22;1444;49.166;7.312;2022-08-19T15:21:03;31.20;55.90
2873;DHT22;1444;49.166;7.312;2022-08-19T15:23:30;31.10;56.00
2873;DHT22;1444;49.166;7.312;2022-08-19T15:25:57;30.90;56.20
2873;DHT22;1444;49.166;7.312;2022-08-19T15:28:25;31.00;56.90
2873;DHT22;1444;49.166;7.312;2022-08-19T15:30:52;30.90;56.20
2873;DHT22;1444;49.166;7.312;2022-08-19T15:33:19;30.90;55.80
2873;DHT22;1444;49.166;7.312;2022-08-19T15:35:47;30.90;55.20
2873;DHT22;1444;49.166;7.312;2022-08-19T15:38:16;31.00;55.60
2873;DHT22;1444;49.166;7.312;2022-08-19T15:40:45;31.00;55.70
2873;DHT22;1444;49.166;7.312;2022-08-19T15:43:13;31.00;55.00
2873;DHT22;1444;49.166;7.312;2022-08-19T15:45:40;31.00;55.30
2873;DHT22;1444;49.166;7.312;2022-08-19T15:48:07;31.10;54.20
2873;DHT22;1444;49.166;7.312;2022-08-19T15:50:34;31.10;54.60
2873;DHT22;1444;49.166;7.312;2022-08-19T15:53:04;31.10;54.60
2873;DHT22;1444;49.166;7.312;2022-08-19T15:55:34;31.20;54.10
2873;DHT22;1444;49.166;7.312;2022-08-19T15:58:02;31.20;54.90
2873;DHT22;1444;49.166;7.312;2022-08-19T16:00:46;31.00;54.40
2873;DHT22;1444;49.166;7.312;2022-08-19T16:03:30;31.00;55.10
2873;DHT22;1444;49.166;7.312;2022-08-19T16:06:14;30.80;55.50
2873;DHT22;1444;49.166;7.312;2022-08-19T16:08:56;30.70;55.40
2873;DHT22;1444;49.166;7.312;2022-08-19T16:11:25;30.60;55.90
2873;DHT22;1444;49.166;7.312;2022-08-19T16:13:53;30.60;56.50
2873;DHT22;1444;49.166;7.312;2022-08-19T16:16:25;30.30;55.60
2873;DHT22;1444;49.166;7.312;2022-08-19T16:18:53;30.30;56.00